Etusivu
METAR-TAF:

METAR-TAF

Lentoasemat :

Lampedusan lentoasema

Lampedusa, Italia

Leveyspiiri: 35-30N, Pituuspiiri: 012-36E, korkeus merenpinnasta: 16 m

Tämänhetkinen sää

Tämä raportti tehtiin 30 minuuttia sitten, kello 19.20 UTC
Tuuli 5 kn etelästä
Lämpötila 20°C
Kosteus 68%
Ilmanpaine 1021 hPa
Näkyvyys 10 km tai enemmän

METAR: LICD 281920Z AUTO 18005KT 9999 NCD 20/14 Q1021

Aika: 21:50 (19:50 UTC)

Sääennuste

Tämä raportti tehtiin 2 tuntia ja 50 minuuttia sitten, kello 17.00 UTC
Ennuste voimassa 28. päivästä klo 18 UTC - 29. päivään klo 18 UTC
Tuuli 10 kn etelästä/kaakosta
Näkyvyys 10 km tai enemmän
ei pilviä alle 1500 m:ssä eikä cumulonimbus-pilviä

TAF: LICD 281700Z 2818/2918 16010KT CAVOK

Säähavainnot ja -ennusteet yli 4000 lentoasemalta (METAR- ja TAF-raportit).

Käytössä olevat sääasemat on merkitty karttaan keltaisilla ja punaisilla pisteillä.

Aseta hiiri pisteen päälle nähdäksesi sääaseman nimen.

Klikkaa sitten nähdäksesi säähavainnot ja -ennusteet.

Kartan vaihtaminen: klikkaa mustalla rastilla varustettuja vihreitä pisteitä, niin voit zoomata sisään; viivalla varustettua vihreää pistettä, niin voit zoomata ulos tai vihreitä nuolia, niin pääset viereisille kartoille.


METAR-TAF: